createdAt,value
2019-02-24T00:00:35.176Z,99294.69
2019-02-24T00:03:04.852Z,99296.78
2019-02-24T00:05:34.337Z,99299.34
2019-02-24T00:08:03.951Z,99285.33
2019-02-24T00:10:33.446Z,99285.02
2019-02-24T00:13:02.939Z,99291.58
2019-02-24T00:15:32.622Z,99294.15
2019-02-24T00:18:02.111Z,99289.50
2019-02-24T00:20:31.665Z,99292.22
2019-02-24T00:23:01.190Z,99289.16
2019-02-24T00:25:30.686Z,99289.24
2019-02-24T00:28:06.992Z,99289.24
2019-02-24T00:30:31.408Z,99284.84
2019-02-24T00:33:00.921Z,99290.17
2019-02-24T00:35:31.358Z,99287.66
2019-02-24T00:38:00.983Z,99280.69
2019-02-24T00:40:30.451Z,99287.61
2019-02-24T00:42:59.959Z,99290.22
2019-02-24T00:45:29.539Z,99289.52
2019-02-24T00:47:59.021Z,99279.48
2019-02-24T00:50:28.524Z,99279.86
2019-02-24T00:52:58.005Z,99276.70
2019-02-24T00:55:27.495Z,99272.59
2019-02-24T00:57:56.984Z,99276.07
2019-02-24T01:00:26.549Z,99272.70
2019-02-24T01:02:56.114Z,99278.06
2019-02-24T01:05:25.645Z,99279.74
2019-02-24T01:07:55.141Z,99283.84
2019-02-24T01:10:24.614Z,99276.80
2019-02-24T01:12:54.107Z,99272.41
2019-02-24T01:15:23.683Z,99280.02
2019-02-24T01:17:53.242Z,99283.78
2019-02-24T01:20:22.750Z,99274.39
2019-02-24T01:22:52.326Z,99272.23
2019-02-24T01:25:21.853Z,99269.47
2019-02-24T01:27:51.323Z,99268.24
2019-02-24T01:30:20.902Z,99273.87
2019-02-24T01:32:50.392Z,99269.62
2019-02-24T01:35:19.891Z,99276.69
2019-02-24T01:37:49.386Z,99271.15
2019-02-24T01:40:18.900Z,99270.88
2019-02-24T01:42:48.386Z,99262.92
2019-02-24T01:45:17.901Z,99257.78
2019-02-24T01:47:47.374Z,99252.22
2019-02-24T01:50:16.933Z,99253.64
2019-02-24T01:52:46.424Z,99253.08
2019-02-24T01:55:15.915Z,99246.23
2019-02-24T01:57:45.421Z,99245.54
2019-02-24T02:00:15.004Z,99242.64
2019-02-24T02:02:44.487Z,99242.81
2019-02-24T02:05:14.042Z,99249.75
2019-02-24T02:07:43.487Z,99244.70
2019-02-24T02:10:12.947Z,99231.54
2019-02-24T02:12:42.685Z,99231.20
2019-02-24T02:15:12.219Z,99233.11
2019-02-24T02:17:41.695Z,99220.93
2019-02-24T02:20:11.249Z,99231.20
2019-02-24T02:22:40.714Z,99232.34
2019-02-24T02:25:10.280Z,99224.88
2019-02-24T02:27:39.740Z,99212.03
2019-02-24T02:30:11.357Z,99219.55
2019-02-24T02:32:40.864Z,99216.44
2019-02-24T02:35:10.455Z,99212.36
2019-02-24T02:37:39.887Z,99216.08
2019-02-24T02:40:09.503Z,99224.98
2019-02-24T02:42:38.970Z,99217.87
2019-02-24T02:45:08.526Z,99219.75
2019-02-24T02:47:38.000Z,99223.92
2019-02-24T02:50:07.574Z,99225.89
2019-02-24T02:52:37.051Z,99230.06
2019-02-24T02:55:06.719Z,99232.52
2019-02-24T02:57:36.174Z,99229.16
2019-02-24T03:00:12.488Z,99232.33
2019-02-24T03:02:41.950Z,99230.12
2019-02-24T03:05:11.491Z,99219.63
2019-02-24T03:07:47.543Z,99224.63
2019-02-24T03:10:17.011Z,99220.85
2019-02-24T03:12:46.464Z,99213.72
2019-02-24T03:15:15.931Z,99225.47
2019-02-24T03:17:45.403Z,99223.80
2019-02-24T03:20:14.875Z,99220.66
2019-02-24T03:22:44.351Z,99218.83
2019-02-24T03:25:13.825Z,99215.74
2019-02-24T03:27:43.287Z,99223.66
2019-02-24T03:30:14.349Z,99216.73
2019-02-24T03:32:43.752Z,99215.74
2019-02-24T03:35:13.226Z,99213.31
2019-02-24T03:37:42.718Z,99214.46
2019-02-24T03:40:12.247Z,99215.13
2019-02-24T03:42:41.727Z,99214.63
2019-02-24T03:45:11.272Z,99219.90
2019-02-24T03:47:40.757Z,99217.61
2019-02-24T03:50:10.278Z,99224.58
2019-02-24T03:52:39.820Z,99226.42
2019-02-24T03:55:09.353Z,99218.88
2019-02-24T03:57:38.905Z,99217.49
2019-02-24T04:00:08.458Z,99223.12
2019-02-24T04:02:38.033Z,99217.84
2019-02-24T04:05:07.545Z,99220.42
2019-02-24T04:07:37.025Z,99214.96
2019-02-24T04:10:06.761Z,99214.89
2019-02-24T04:12:36.305Z,99220.25
2019-02-24T04:15:06.038Z,99217.14
2019-02-24T04:17:35.520Z,99224.41
2019-02-24T04:20:05.106Z,99226.78
2019-02-24T04:22:34.593Z,99220.95
2019-02-24T04:25:04.057Z,99225.08
2019-02-24T04:27:33.534Z,99220.69
2019-02-24T04:30:03.245Z,99227.34
2019-02-24T04:32:32.720Z,99236.69
2019-02-24T04:35:02.210Z,99224.42
2019-02-24T04:37:31.649Z,99231.17
2019-02-24T04:40:01.173Z,99230.72
2019-02-24T04:42:30.652Z,99233.84
2019-02-24T04:45:00.282Z,99232.78
2019-02-24T04:47:30.001Z,99235.64
2019-02-24T04:49:59.465Z,99238.16
2019-02-24T04:52:28.945Z,99235.14
2019-02-24T04:54:58.401Z,99239.81
2019-02-24T04:57:27.876Z,99237.25
2019-02-24T04:59:57.339Z,99237.66
2019-02-24T05:02:26.828Z,99241.88
2019-02-24T05:04:56.305Z,99236.95
2019-02-24T05:07:25.760Z,99236.59
2019-02-24T05:09:55.228Z,99239.31
2019-02-24T05:12:24.686Z,99229.16
2019-02-24T05:14:54.149Z,99238.52
2019-02-24T05:17:23.626Z,99234.03
2019-02-24T05:19:53.160Z,99239.17
2019-02-24T05:22:22.635Z,99236.95
2019-02-24T05:24:52.103Z,99242.03
2019-02-24T05:27:21.577Z,99238.45
2019-02-24T05:29:51.078Z,99245.17
2019-02-24T05:32:20.639Z,99243.43
2019-02-24T05:34:50.124Z,99240.22
2019-02-24T05:37:19.579Z,99237.16
2019-02-24T05:39:49.053Z,99243.93
2019-02-24T05:42:18.519Z,99242.62
2019-02-24T05:44:47.969Z,99250.66
2019-02-24T05:47:17.533Z,99249.73
2019-02-24T05:49:47.021Z,99251.32
2019-02-24T05:52:16.497Z,99258.21
2019-02-24T05:54:45.964Z,99249.56
2019-02-24T05:57:15.425Z,99248.80
2019-02-24T05:59:54.755Z,99260.51
2019-02-24T06:02:16.062Z,99256.88
2019-02-24T06:04:45.539Z,99257.20
2019-02-24T06:07:15.042Z,99265.23
2019-02-24T06:09:44.510Z,99271.75
2019-02-24T06:12:13.993Z,99275.18
2019-02-24T06:14:43.560Z,99266.34
2019-02-24T06:17:13.090Z,99273.64
2019-02-24T06:19:42.573Z,99279.25
2019-02-24T06:22:12.075Z,99279.67
2019-02-24T06:24:41.532Z,99281.11
2019-02-24T06:27:10.995Z,99283.63
2019-02-24T06:29:40.462Z,99279.02
2019-02-24T06:32:09.929Z,99279.72
2019-02-24T06:34:39.385Z,99287.82
2019-02-24T06:37:08.857Z,99300.03
2019-02-24T06:39:38.345Z,99293.27
2019-02-24T06:42:07.821Z,99300.96
2019-02-24T06:44:37.375Z,99309.17
2019-02-24T06:47:06.837Z,99304.84
2019-02-24T06:49:36.310Z,99312.23
2019-02-24T06:52:05.788Z,99314.84
2019-02-24T06:54:35.264Z,99318.02
2019-02-24T06:57:04.755Z,99319.83
2019-02-24T06:59:34.236Z,99317.75
2019-02-24T07:02:03.706Z,99320.35
2019-02-24T07:04:33.185Z,99321.89
2019-02-24T07:07:02.639Z,99331.53
2019-02-24T07:09:32.113Z,99327.15
2019-02-24T07:12:01.598Z,99337.44
2019-02-24T07:14:31.082Z,99333.79
2019-02-24T07:17:00.563Z,99330.30
2019-02-24T07:19:30.049Z,99335.45
2019-02-24T07:21:59.517Z,99328.96
2019-02-24T07:24:28.983Z,99326.42
2019-02-24T07:26:58.453Z,99320.88
2019-02-24T07:29:28.013Z,99315.89
2019-02-24T07:31:57.486Z,99320.48
2019-02-24T07:34:26.968Z,99327.52
2019-02-24T07:36:56.509Z,99315.13
2019-02-24T07:39:25.985Z,99311.80
2019-02-24T07:41:55.450Z,99312.51
2019-02-24T07:44:24.976Z,99314.03
2019-02-24T07:46:54.528Z,99313.95
2019-02-24T07:49:24.082Z,99305.20
2019-02-24T07:51:53.546Z,99297.68
2019-02-24T07:54:23.007Z,99294.80
2019-02-24T07:56:52.477Z,99291.55
2019-02-24T07:59:21.932Z,99281.23
2019-02-24T08:01:51.421Z,99274.48
2019-02-24T08:04:20.898Z,99263.48
2019-02-24T08:06:50.366Z,99271.86
2019-02-24T08:09:19.828Z,99264.66
2019-02-24T08:11:49.294Z,99253.98
2019-02-24T08:14:18.761Z,99248.76
2019-02-24T08:16:48.245Z,99245.73
2019-02-24T08:19:17.746Z,99239.07
2019-02-24T08:21:47.319Z,99244.97
2019-02-24T08:24:16.742Z,99251.55
2019-02-24T08:26:46.299Z,99245.47
2019-02-24T08:29:15.746Z,99253.39
2019-02-24T08:31:45.310Z,99254.12
2019-02-24T08:34:14.786Z,99269.25
2019-02-24T08:36:44.276Z,99278.94
2019-02-24T08:39:13.827Z,99278.94
2019-02-24T08:41:43.303Z,99281.40
2019-02-24T08:44:12.774Z,99287.72
2019-02-24T08:46:42.248Z,99288.48
2019-02-24T08:49:12.290Z,99292.41
2019-02-24T08:51:41.871Z,99280.75
2019-02-24T08:54:11.362Z,99271.70
2019-02-24T08:56:40.775Z,99271.25
2019-02-24T08:59:10.309Z,99266.99
2019-02-24T09:01:39.786Z,99281.94
2019-02-24T09:04:09.261Z,99284.59
2019-02-24T09:06:38.749Z,99278.13
2019-02-24T09:09:08.232Z,99288.85
2019-02-24T09:11:37.771Z,99290.92
2019-02-24T09:14:07.331Z,99304.84
2019-02-24T09:16:36.828Z,99309.69
2019-02-24T09:19:06.685Z,99298.23
2019-02-24T09:21:36.245Z,99289.56
2019-02-24T09:24:05.783Z,99285.11
2019-02-24T09:26:35.406Z,99259.74
2019-02-24T09:29:04.951Z,99250.78
2019-02-24T09:31:34.480Z,99260.21
2019-02-24T09:34:03.950Z,99257.04
2019-02-24T09:36:33.801Z,99270.03
2019-02-24T09:39:32.548Z,99278.97
2019-02-24T09:42:02.038Z,99268.23
2019-02-24T09:44:31.526Z,99273.36
2019-02-24T09:47:01.086Z,99281.97
2019-02-24T09:49:30.549Z,99291.15
2019-02-24T09:52:00.018Z,99292.73
2019-02-24T09:54:29.465Z,99292.48
2019-02-24T09:56:58.937Z,99284.95
2019-02-24T09:59:28.683Z,99287.48
2019-02-24T10:01:58.160Z,99295.42
2019-02-24T10:04:27.623Z,99295.42
2019-02-24T10:06:57.243Z,99291.15
2019-02-24T10:09:26.740Z,99289.20
2019-02-24T10:11:56.219Z,99287.03
2019-02-24T10:15:12.577Z,99293.41
2019-02-24T10:17:42.433Z,99280.36
2019-02-24T10:20:11.989Z,99271.95
2019-02-24T10:22:41.645Z,99274.05
2019-02-24T10:25:11.199Z,99270.32
2019-02-24T10:27:40.676Z,99277.63
2019-02-24T10:30:10.423Z,99276.20
2019-02-24T10:32:39.912Z,99287.70
2019-02-24T10:35:09.473Z,99269.53
2019-02-24T10:37:39.018Z,99270.71
2019-02-24T10:40:12.319Z,99277.05
2019-02-24T10:42:41.454Z,99293.31
2019-02-24T10:45:11.854Z,99281.62
2019-02-24T10:47:41.336Z,99281.30
2019-02-24T10:50:12.434Z,99286.55
2019-02-24T10:52:41.913Z,99287.81
2019-02-24T10:55:11.544Z,99289.98
2019-02-24T10:57:41.835Z,99280.52
2019-02-24T11:00:12.863Z,99277.10
2019-02-24T11:02:42.497Z,99278.09
2019-02-24T11:05:12.048Z,99280.65
2019-02-24T11:07:41.614Z,99284.59
2019-02-24T11:10:13.995Z,99277.56
2019-02-24T11:12:42.339Z,99276.19
2019-02-24T11:15:11.910Z,99283.02
2019-02-24T11:17:41.539Z,99282.75
2019-02-24T11:20:13.890Z,99288.00
2019-02-24T11:22:42.625Z,99294.16
2019-02-24T11:25:12.190Z,99290.78
2019-02-24T11:27:41.671Z,99298.92
2019-02-24T11:30:14.241Z,99298.82
2019-02-24T11:32:42.452Z,99297.28
2019-02-24T11:35:12.088Z,99281.78
2019-02-24T11:37:41.662Z,99290.65
2019-02-24T11:40:14.228Z,99283.63
2019-02-24T11:42:42.436Z,99283.69
2019-02-24T11:45:11.917Z,99275.02
2019-02-24T11:47:41.477Z,99269.77
2019-02-24T11:50:11.289Z,99273.31
2019-02-24T11:52:40.851Z,99289.14
2019-02-24T11:55:10.450Z,99291.70
2019-02-24T11:57:39.994Z,99292.76
2019-02-24T12:00:09.668Z,99289.14
2019-02-24T12:02:39.211Z,99287.44
2019-02-24T12:05:08.806Z,99276.33
2019-02-24T12:07:38.348Z,99279.02
2019-02-24T12:10:08.357Z,99272.91
2019-02-24T12:12:37.846Z,99262.80
2019-02-24T12:15:08.596Z,99262.12
2019-02-24T12:17:38.158Z,99257.92
2019-02-24T12:20:09.507Z,99267.91
2019-02-24T12:22:38.973Z,99269.22
2019-02-24T12:25:08.634Z,99271.58
2019-02-24T12:27:38.272Z,99267.03
2019-02-24T12:30:08.741Z,99253.89
2019-02-24T12:32:38.355Z,99248.56
2019-02-24T12:35:07.868Z,99233.58
2019-02-24T12:37:37.477Z,99245.55
2019-02-24T12:40:07.832Z,99250.59
2019-02-24T12:42:37.296Z,99238.30
2019-02-24T12:45:07.064Z,99244.48
2019-02-24T12:47:36.633Z,99245.73
2019-02-24T12:50:06.937Z,99237.31
2019-02-24T12:52:36.422Z,99242.54
2019-02-24T12:55:06.225Z,99235.44
2019-02-24T12:57:35.774Z,99239.98
2019-02-24T13:00:08.330Z,99237.03
2019-02-24T13:02:37.829Z,99235.64
2019-02-24T13:05:07.415Z,99235.19
2019-02-24T13:07:36.889Z,99240.98
2019-02-24T13:10:07.886Z,99242.23
2019-02-24T13:12:37.423Z,99236.58
2019-02-24T13:15:07.339Z,99226.30
2019-02-24T13:17:36.885Z,99225.16
2019-02-24T13:20:07.083Z,99231.92
2019-02-24T13:22:36.647Z,99230.70
2019-02-24T13:25:09.788Z,99231.27
2019-02-24T13:27:39.557Z,99220.28
2019-02-24T13:30:09.603Z,99218.75
2019-02-24T13:32:39.170Z,99218.45
2019-02-24T13:35:08.859Z,99224.81
2019-02-24T13:37:38.387Z,99228.89
2019-02-24T13:40:08.437Z,99228.59
2019-02-24T13:42:38.326Z,99233.33
2019-02-24T13:45:10.097Z,99230.59
2019-02-24T13:47:39.580Z,99237.19
2019-02-24T13:50:09.222Z,99242.23
2019-02-24T13:52:38.731Z,99234.18
2019-02-24T13:55:09.601Z,99230.92
2019-02-24T13:57:39.093Z,99229.82
2019-02-24T14:00:13.067Z,99222.17
2019-02-24T14:02:42.538Z,99226.58
2019-02-24T14:05:12.116Z,99215.00
2019-02-24T14:07:41.738Z,99211.27
2019-02-24T14:10:15.021Z,99211.59
2019-02-24T14:12:43.321Z,99213.69
2019-02-24T14:15:12.909Z,99215.52
2019-02-24T14:17:42.461Z,99216.63
2019-02-24T14:20:12.255Z,99211.09
2019-02-24T14:22:41.820Z,99216.99
2019-02-24T14:25:11.488Z,99223.75
2019-02-24T14:27:41.078Z,99228.53
2019-02-24T14:30:13.299Z,99234.59
2019-02-24T14:32:44.153Z,99228.38
2019-02-24T14:35:14.432Z,99235.67
2019-02-24T14:37:43.888Z,99225.61
2019-02-24T14:40:13.455Z,99232.23
2019-02-24T14:43:20.578Z,99227.42
2019-02-24T14:45:53.994Z,99231.89
2019-02-24T14:48:23.492Z,99232.56
2019-02-24T14:50:52.988Z,99231.20
2019-02-24T14:53:22.539Z,99224.59
2019-02-24T14:55:52.009Z,99226.29
2019-02-24T14:58:21.481Z,99237.82
2019-02-24T15:00:51.085Z,99234.98
2019-02-24T15:03:20.586Z,99234.81
2019-02-24T15:05:50.119Z,99233.11
2019-02-24T15:08:19.667Z,99245.30
2019-02-24T15:10:49.232Z,99234.97
2019-02-24T15:13:18.705Z,99240.92
2019-02-24T15:15:48.235Z,99244.36
2019-02-24T15:18:17.713Z,99250.68
2019-02-24T15:20:47.333Z,99246.31
2019-02-24T15:23:16.858Z,99239.19
2019-02-24T15:25:46.334Z,99244.84
2019-02-24T15:28:15.802Z,99241.14
2019-02-24T15:30:45.341Z,99247.84
2019-02-24T15:33:14.841Z,99239.92
2019-02-24T15:35:44.299Z,99243.02
2019-02-24T15:38:13.814Z,99246.28
2019-02-24T15:40:43.288Z,99250.46
2019-02-24T15:43:12.864Z,99245.81
2019-02-24T15:45:42.406Z,99248.83
2019-02-24T15:48:11.941Z,99250.19
2019-02-24T15:50:41.397Z,99242.88
2019-02-24T15:53:10.919Z,99248.56
2019-02-24T15:55:40.385Z,99246.83
2019-02-24T15:58:09.949Z,99245.50
2019-02-24T16:00:39.515Z,99242.88
2019-02-24T16:16:20.935Z,99233.47
2019-02-24T16:18:50.403Z,99234.67
2019-02-24T16:21:19.882Z,99226.05
2019-02-24T16:23:49.364Z,99228.55
2019-02-24T16:26:18.823Z,99226.30
2019-02-24T16:28:48.289Z,99238.19
2019-02-24T16:31:17.754Z,99231.48
2019-02-24T16:33:47.228Z,99235.36
2019-02-24T16:36:16.720Z,99236.70
2019-02-24T16:38:46.206Z,99224.67
2019-02-24T16:41:15.674Z,99231.26
2019-02-24T16:43:45.166Z,99231.39
2019-02-24T16:46:14.776Z,99233.22
2019-02-24T16:48:44.438Z,99232.41
2019-02-24T16:51:14.027Z,99233.19
2019-02-24T16:53:43.527Z,99232.09
2019-02-24T16:56:13.068Z,99233.23
2019-02-24T16:58:42.567Z,99234.50
2019-02-24T17:01:12.155Z,99236.10
2019-02-24T17:03:41.650Z,99232.42
2019-02-24T17:06:11.207Z,99242.91
2019-02-24T17:08:40.733Z,99236.27
2019-02-24T17:11:10.294Z,99233.54
2019-02-24T17:13:39.777Z,99241.14
2019-02-24T17:16:09.367Z,99253.32
2019-02-24T17:18:38.877Z,99254.09
2019-02-24T17:21:08.365Z,99253.70
2019-02-24T17:23:37.866Z,99252.62
2019-02-24T17:26:07.334Z,99261.44
2019-02-24T17:28:36.927Z,99252.82
2019-02-24T17:31:07.113Z,99266.92
2019-02-24T17:33:36.576Z,99273.48
2019-02-24T17:36:07.622Z,99276.59
2019-02-24T17:38:37.340Z,99277.42
2019-02-24T17:41:06.894Z,99277.98
2019-02-24T17:43:36.378Z,99283.67
2019-02-24T17:46:05.852Z,99282.43
2019-02-24T17:48:35.348Z,99280.88
2019-02-24T17:51:04.900Z,99270.81
2019-02-24T17:53:34.451Z,99269.63
2019-02-24T17:56:03.862Z,99279.32
2019-02-24T17:58:33.331Z,99277.05
2019-02-24T18:01:04.412Z,99274.77
2019-02-24T18:03:39.417Z,99284.73
2019-02-24T18:06:05.248Z,99279.47
2019-02-24T18:08:34.828Z,99280.84
2019-02-24T18:11:04.317Z,99292.14
2019-02-24T18:13:33.917Z,99279.26
2019-02-24T18:16:03.646Z,99284.38
2019-02-24T18:18:33.337Z,99290.02
2019-02-24T18:21:02.865Z,99291.08
2019-02-24T18:23:32.347Z,99288.16
2019-02-24T18:26:01.876Z,99284.85
2019-02-24T18:28:31.441Z,99291.05
2019-02-24T18:31:00.921Z,99286.67
2019-02-24T18:33:30.406Z,99282.45
2019-02-24T18:35:59.931Z,99286.05
2019-02-24T18:38:29.400Z,99283.87
2019-02-24T18:40:58.977Z,99283.76
2019-02-24T18:43:28.601Z,99291.16
2019-02-24T18:45:58.157Z,99290.28
2019-02-24T18:48:27.666Z,99290.92
2019-02-24T18:50:57.148Z,99290.25
2019-02-24T18:53:26.665Z,99299.02
2019-02-24T18:55:56.189Z,99291.75
2019-02-24T18:58:25.674Z,99288.84
2019-02-24T19:00:55.177Z,99287.74
2019-02-24T19:03:24.674Z,99291.51
2019-02-24T19:05:54.186Z,99284.41
2019-02-24T19:08:23.672Z,99288.38
2019-02-24T19:10:53.237Z,99291.72
2019-02-24T19:13:22.809Z,99284.98
2019-02-24T19:15:52.363Z,99280.97
2019-02-24T19:18:21.921Z,99281.29
2019-02-24T19:20:51.465Z,99275.55
2019-02-24T19:23:20.934Z,99279.27
2019-02-24T19:25:50.496Z,99272.83
2019-02-24T19:28:20.231Z,99284.91
2019-02-24T19:30:49.707Z,99287.22
2019-02-24T19:33:19.189Z,99289.28
2019-02-24T19:35:48.884Z,99296.23
2019-02-24T19:38:18.473Z,99302.02
2019-02-24T19:40:48.414Z,99300.32
2019-02-24T19:43:17.895Z,99304.59
2019-02-24T19:45:47.493Z,99304.13
2019-02-24T19:48:17.001Z,99307.60
2019-02-24T19:50:46.513Z,99307.20
2019-02-24T19:53:15.983Z,99305.57
2019-02-24T19:55:45.521Z,99309.16
2019-02-24T19:58:15.018Z,99310.77
2019-02-24T20:00:44.514Z,99317.47
2019-02-24T20:03:14.004Z,99316.05
2019-02-24T20:05:43.494Z,99316.09
2019-02-24T20:08:12.974Z,99312.06
2019-02-24T20:10:42.791Z,99314.47
2019-02-24T20:13:12.264Z,99315.52
2019-02-24T20:15:41.756Z,99326.91
2019-02-24T20:18:11.287Z,99321.93
2019-02-24T20:20:40.838Z,99325.66
2019-02-24T20:23:10.357Z,99326.05
2019-02-24T20:25:39.857Z,99325.19
2019-02-24T20:28:09.455Z,99323.77
2019-02-24T20:30:38.946Z,99321.63
2019-02-24T20:33:08.464Z,99321.75
2019-02-24T20:35:37.987Z,99317.19
2019-02-24T20:38:07.501Z,99324.67
2019-02-24T20:40:37.051Z,99317.55
2019-02-24T20:43:06.595Z,99316.66
2019-02-24T20:45:36.065Z,99320.58
2019-02-24T20:48:05.872Z,99324.64
2019-02-24T20:50:35.372Z,99325.95
2019-02-24T20:53:05.358Z,99309.86
2019-02-24T20:55:34.929Z,99306.80
2019-02-24T20:58:04.568Z,99316.48
2019-02-24T21:00:37.049Z,99319.03
2019-02-24T21:03:06.611Z,99315.80
2019-02-24T21:05:36.170Z,99310.75
2019-02-24T21:08:07.874Z,99319.31
2019-02-24T21:10:37.083Z,99324.41
2019-02-24T21:13:06.647Z,99320.94
2019-02-24T21:15:36.124Z,99321.48
2019-02-24T21:18:05.708Z,99319.41
2019-02-24T21:20:35.281Z,99314.72
2019-02-24T21:23:04.930Z,99322.65
2019-02-24T21:25:34.415Z,99320.22
2019-02-24T21:28:04.148Z,99317.91
2019-02-24T21:30:33.614Z,99323.50
2019-02-24T21:33:03.168Z,99325.89
2019-02-24T21:35:32.692Z,99326.00
2019-02-24T21:38:02.190Z,99319.98
2019-02-24T21:40:31.673Z,99330.53
2019-02-24T21:43:01.240Z,99326.45
2019-02-24T21:45:30.801Z,99330.02
2019-02-24T21:48:00.284Z,99332.09
2019-02-24T21:50:29.840Z,99322.87
2019-02-24T21:52:59.332Z,99326.92
2019-02-24T21:55:28.875Z,99327.32
2019-02-24T21:57:58.368Z,99328.50
2019-02-24T22:00:28.006Z,99323.77
2019-02-24T22:02:57.593Z,99328.73
2019-02-24T22:05:27.077Z,99326.66
2019-02-24T22:07:56.575Z,99323.77
2019-02-24T22:10:26.069Z,99315.54
2019-02-24T22:12:55.620Z,99309.41
2019-02-24T22:15:25.178Z,99318.64
2019-02-24T22:17:54.735Z,99323.29
2019-02-24T22:20:24.283Z,99318.68
2019-02-24T22:22:53.781Z,99323.37
2019-02-24T22:25:23.332Z,99327.70
2019-02-24T22:27:52.898Z,99334.31
2019-02-24T22:30:22.460Z,99330.98
2019-02-24T22:32:52.051Z,99331.38
2019-02-24T22:35:21.597Z,99327.06
2019-02-24T22:37:51.159Z,99327.36
2019-02-24T22:40:20.648Z,99333.36
2019-02-24T22:42:50.227Z,99327.68
2019-02-24T22:45:19.879Z,99329.38
2019-02-24T22:47:49.491Z,99325.40
2019-02-24T22:50:19.047Z,99327.25
2019-02-24T22:52:48.536Z,99328.81
2019-02-24T22:55:18.169Z,99324.33
2019-02-24T22:57:47.651Z,99327.59
2019-02-24T23:00:45.541Z,99327.11
2019-02-24T23:03:15.128Z,99327.93
2019-02-24T23:05:44.672Z,99320.26
2019-02-24T23:08:14.317Z,99320.24
2019-02-24T23:10:44.216Z,99320.05
2019-02-24T23:13:13.752Z,99307.27
2019-02-24T23:15:43.291Z,99304.82
2019-02-24T23:18:12.779Z,99300.84
2019-02-24T23:20:42.257Z,99300.14
2019-02-24T23:23:11.836Z,99291.45
2019-02-24T23:25:41.316Z,99295.73
2019-02-24T23:28:10.893Z,99291.23
2019-02-24T23:30:40.485Z,99291.85
2019-02-24T23:33:10.058Z,99287.36
2019-02-24T23:35:39.527Z,99289.95
2019-02-24T23:38:09.037Z,99293.87
2019-02-24T23:40:38.519Z,99292.59
2019-02-24T23:43:07.994Z,99295.17
2019-02-24T23:45:37.542Z,99292.57
2019-02-24T23:48:07.086Z,99289.09
2019-02-24T23:50:36.629Z,99289.01
2019-02-24T23:53:06.090Z,99298.27
2019-02-24T23:55:35.575Z,99294.40
2019-02-24T23:58:05.433Z,99288.36
